Content
SEND FEEDBACK

Daily
Averages
Monthly
Summary
United States of America

SOUTH PASS CITY, WYOMING


Home > North America > United States > Wyoming
Elevation: 7995 feet     Latitude: 42 28N     Longitude: 108 48W

WEATHER
 
SELECT A DAY
Number of Records: 60,795;   Date Range: 10/12/11 - 7/27/14
 
SHARE

PRINT THIS DATA

[ ← Previous Day ]
WEATHER ALMANAC - JANUARY 31, 2013
[ Next Day → ]
[ °C ]   °F
Weather ElementAverageHighLow
Temperature25.3 °F30.2 °F (11:55 am)21.2 °F (8:15 pm)
Dewpoint15.4 °F19.4 °F (12:15 pm)10.4 °F (1:55 am)
Humidity66.3 %86 % (8:15 pm)51 % (11:55 am)
Wind Speed12 mph23 mph (10:35 pm)
Wind Gust31.1 mph (10:35 pm)
Weather ElementAverage
Visibility10 mi
Wind DirectionW (266.6 °)

Weather ElementTotal
Precipitation---
Heating Degree Days39.3 (Base 65)
Averaged from 70 records on January 31, 2013
WEATHER CONDITIONS BREAKOUT
WIND DIRECTION BREAKOUT
WEATHER BY HOUR - JANUARY 31, 2013
[ °C ]   °F
Local TimeTemperatureDewpointHumidityBarometerVisibilityWind DirectionWind SpeedGust SpeedPrecipitationEventsConditions
12:35 AM24.8 °F14.0 °F64 %10.0 miWest (270°)8.1 mphClear
12:55 AM23.0 °F15.8 °F74 %10.0 miWest (260°)6.9 mphClear
1:15 AM23.0 °F14.0 °F68 %10.0 miWSW (250°)5.8 mphClear
1:35 AM23.0 °F14.0 °F68 %10.0 miWest (270°)3.5 mphClear
1:55 AM23.0 °F10.4 °F59 %10.0 miWNW (290°)9.2 mph17.3 mphClear
2:15 AM23.0 °F12.2 °F63 %10.0 miWNW (290°)9.2 mphClear
2:35 AM24.8 °F12.2 °F59 %10.0 miWNW (290°)8.1 mphClear
2:55 AM23.0 °F14.0 °F68 %10.0 miWNW (290°)10.4 mph17.3 mphClear
3:15 AM23.0 °F14.0 °F68 %10.0 miWest (280°)9.2 mphClear
3:35 AM23.0 °F12.2 °F63 %10.0 miWest (280°)5.8 mphClear
3:55 AM23.0 °F12.2 °F63 %10.0 miWest (280°)9.2 mphClear
4:15 AM23.0 °F12.2 °F63 %10.0 miWNW (300°)11.5 mphClear
4:35 AM23.0 °F12.2 °F63 %10.0 miWNW (290°)6.9 mphClear
4:55 AM23.0 °F12.2 °F63 %10.0 miWest (260°)8.1 mphClear
5:15 AM23.0 °F12.2 °F63 %10.0 miWest (260°)6.9 mphClear
5:55 AM23.0 °F12.2 °F63 %10.0 miWest (260°)9.2 mphClear
6:15 AM23.0 °F12.2 °F63 %10.0 miWest (270°)8.1 mphClear
6:35 AM23.0 °F12.2 °F63 %10.0 miWest (270°)10.4 mphClear
6:55 AM23.0 °F12.2 °F63 %10.0 miWest (260°)6.9 mphClear
7:15 AM23.0 °F12.2 °F63 %10.0 miWest (270°)6.9 mphClear
7:35 AM23.0 °F12.2 °F63 %10.0 miWest (270°)6.9 mphClear
7:55 AM23.0 °F12.2 °F63 %10.0 miWest (270°)6.9 mphClear
8:15 AM23.0 °F12.2 °F63 %10.0 miWest (280°)8.1 mphClear
8:35 AM24.8 °F12.2 °F59 %10.0 miWest (270°)9.2 mphClear
8:55 AM24.8 °F12.2 °F59 %10.0 miWest (270°)9.2 mphClear
9:15 AM23.0 °F12.2 °F63 %10.0 miWSW (250°)10.4 mphClear
9:35 AM26.6 °F14.0 °F59 %10.0 miWest (260°)9.2 mphClear
9:55 AM26.6 °F14.0 °F59 %10.0 miWSW (250°)10.4 mphClear
10:15 AM26.6 °F14.0 °F59 %10.0 miWSW (250°)11.5 mphClear
10:35 AM26.6 °F15.8 °F64 %10.0 miWSW (250°)13.8 mphClear
10:55 AM28.4 °F15.8 °F59 %10.0 miWest (260°)11.5 mph16.1 mphClear
11:15 AM28.4 °F15.8 °F59 %10.0 miWest (260°)11.5 mphClear
11:35 AM28.4 °F15.8 °F59 %10.0 miWest (260°)15.0 mph21.9 mphClear
11:55 AM30.2 °F14.0 °F51 %10.0 miWest (260°)13.8 mph17.3 mphClear
12:15 PM28.4 °F19.4 °F69 %10.0 miWSW (250°)15.0 mph20.7 mphClear
12:35 PM30.2 °F17.6 °F60 %10.0 miWest (260°)15.0 mph23.0 mphClear
12:55 PM28.4 °F19.4 °F69 %10.0 miWSW (250°)18.4 mph24.2 mphClear
1:15 PM30.2 °F19.4 °F64 %10.0 miWest (270°)12.7 mphClear
1:35 PM30.2 °F19.4 °F64 %10.0 miWest (270°)17.3 mph25.3 mphClear
1:55 PM30.2 °F19.4 °F64 %10.0 miWest (270°)19.6 mph26.5 mphClear
2:15 PM30.2 °F19.4 °F64 %10.0 miWest (270°)19.6 mph29.9 mphClear
2:35 PM28.4 °F17.6 °F64 %10.0 miWest (270°)18.4 mph27.6 mphClear
2:55 PM28.4 °F17.6 °F64 %10.0 miWest (270°)15.0 mph23.0 mphClear
3:15 PM28.4 °F17.6 °F64 %10.0 miWest (260°)16.1 mph21.9 mphClear
3:35 PM28.4 °F17.6 °F64 %10.0 miWest (270°)16.1 mph21.9 mphClear
3:55 PM28.4 °F17.6 °F64 %10.0 miWest (280°)12.7 mph23.0 mphClear
4:15 PM28.4 °F17.6 °F64 %10.0 miWest (270°)15.0 mph21.9 mphClear
4:35 PM28.4 °F17.6 °F64 %10.0 miWest (270°)13.8 mph21.9 mphClear
4:55 PM28.4 °F17.6 °F64 %10.0 miWest (270°)15.0 mph21.9 mphClear
5:15 PM26.6 °F17.6 °F69 %10.0 miWNW (290°)10.4 mph19.6 mphClear
5:35 PM26.6 °F17.6 °F69 %10.0 miWest (270°)11.5 mph21.9 mphClear
5:55 PM24.8 °F17.6 °F74 %10.0 miWest (260°)16.1 mph23.0 mphClear
6:15 PM24.8 °F17.6 °F74 %10.0 miWest (260°)13.8 mph20.7 mphClear
6:35 PM24.8 °F17.6 °F74 %10.0 miWest (260°)12.7 mph19.6 mphClear
6:55 PM23.0 °F17.6 °F80 %10.0 miWSW (250°)12.7 mph17.3 mphClear
7:15 PM23.0 °F17.6 °F80 %10.0 miWSW (250°)12.7 mph18.4 mphClear
7:35 PM23.0 °F17.6 °F80 %10.0 miWSW (250°)13.8 mphClear
7:55 PM23.0 °F17.6 °F80 %10.0 miWSW (250°)12.7 mph18.4 mphClear
8:15 PM21.2 °F17.6 °F86 %10.0 miWest (260°)9.2 mphClear
8:35 PM23.0 °F15.8 °F74 %10.0 miWest (260°)9.2 mphClear
8:55 PM23.0 °F14.0 °F68 %10.0 miWest (260°)9.2 mphClear
9:15 PM24.8 °F14.0 °F64 %10.0 miWest (270°)13.8 mph19.6 mphClear
9:35 PM24.8 °F15.8 °F69 %10.0 miWest (280°)16.1 mph28.8 mphClear
9:55 PM24.8 °F15.8 °F69 %10.0 miWest (270°)17.3 mph25.3 mphClear
10:15 PM24.8 °F15.8 °F69 %10.0 miWest (270°)17.3 mph24.2 mphClear
10:35 PM24.8 °F17.6 °F74 %10.0 miWest (260°)23.0 mph31.1 mphClear
10:55 PM24.8 °F17.6 °F74 %10.0 miWest (260°)17.3 mph26.5 mphClear
11:15 PM24.8 °F17.6 °F74 %10.0 miWest (260°)16.1 mph27.6 mphClear
11:35 PM24.8 °F17.6 °F74 %10.0 miWest (260°)16.1 mph25.3 mphClear
11:55 PM24.8 °F17.6 °F74 %10.0 miWest (260°)15.0 mph25.3 mphClear
Hourly data recorded from KFWZ, located miles away from South Pass City, Wyoming







STORIES FROM OUR PARTNERS